Time;durP1;ratioP1;P1;durP2;ratioP2;P2;SDS_P1;SDS_P2;PMS_P1;PMS_P2;Temp;Humidity;BMP_temperature;BMP_pressure;BME280_temperature;BME280_humidity;BME280_pressure;Samples;Min_cycle;Max_cycle;Signal;HPM_P1;HPM_P2
2021/01/01 00:01:59;;;;;;;299.33;185.33;;;3.90;90.60;;;;;;5096001;28;20020;-80
2021/01/01 00:04:24;;;;;;;249.30;149.83;;;3.90;90.60;;;;;;5096872;28;20391;-80
2021/01/01 00:06:50;;;;;;;330.10;209.37;;;3.90;90.60;;;;;;5096678;28;20032;-80
2021/01/01 00:09:17;;;;;;;346.17;217.47;;;3.90;90.70;;;;;;5096673;28;20103;-80
2021/01/01 00:11:47;;;;;;;365.90;233.50;;;3.90;90.70;;;;;;5096763;28;20025;-81
2021/01/01 00:14:13;;;;;;;429.20;283.23;;;3.90;90.70;;;;;;5095553;28;20020;-80
2021/01/01 00:16:40;;;;;;;379.77;248.57;;;4.00;90.70;;;;;;5078654;28;20032;-80
2021/01/01 00:19:05;;;;;;;510.77;352.67;;;4.00;90.60;;;;;;5095186;28;20024;-80
2021/01/01 00:21:32;;;;;;;324.67;213.43;;;4.00;90.60;;;;;;5096583;28;20031;-80
2021/01/01 00:23:58;;;;;;;313.33;194.30;;;3.90;90.60;;;;;;5096395;28;20032;-80
2021/01/01 00:26:24;;;;;;;311.53;191.73;;;3.90;90.60;;;;;;5096166;28;20020;-80
2021/01/01 00:28:50;;;;;;;295.03;177.57;;;3.90;90.70;;;;;;5096219;28;20036;-83
2021/01/01 00:31:20;;;;;;;250.33;151.70;;;3.90;90.60;;;;;;5096305;28;20028;-84
2021/01/01 00:33:46;;;;;;;233.23;136.37;;;3.80;90.60;;;;;;5094964;28;20085;-84
2021/01/01 00:36:13;;;;;;;240.73;147.03;;;3.80;90.60;;;;;;5094995;28;20028;-84
2021/01/01 00:38:41;;;;;;;214.07;125.37;;;3.80;90.60;;;;;;5096271;28;20056;-84
2021/01/01 00:41:07;;;;;;;204.43;120.20;;;3.70;90.70;;;;;;5096131;28;20048;-84
2021/01/01 00:43:33;;;;;;;212.33;126.83;;;3.70;90.70;;;;;;5096609;28;20066;-85
2021/01/01 00:45:59;;;;;;;233.37;134.37;;;3.70;90.70;;;;;;5096210;28;20051;-84
2021/01/01 00:48:24;;;;;;;245.77;142.83;;;3.70;90.70;;;;;;5096410;28;20028;-83
2021/01/01 00:50:50;;;;;;;252.20;149.83;;;3.70;91.00;;;;;;5096247;28;20029;-84
2021/01/01 00:53:16;;;;;;;248.23;141.60;;;3.70;90.70;;;;;;5096123;28;20028;-84
2021/01/01 00:55:42;;;;;;;235.93;134.73;;;3.70;90.60;;;;;;5077806;28;20024;-84
2021/01/01 00:58:07;;;;;;;204.50;116.17;;;3.70;90.60;;;;;;5093515;28;20066;-84
2021/01/01 01:00:33;;;;;;;201.53;116.63;;;3.70;90.60;;;;;;5094485;28;20507;-84
2021/01/01 01:02:58;;;;;;;192.90;111.43;;;3.60;90.60;;;;;;5061079;28;20035;-84
2021/01/01 01:05:24;;;;;;;206.63;110.57;;;3.50;90.60;;;;;;5094824;28;20039;-84
2021/01/01 01:07:49;;;;;;;193.67;109.90;;;3.50;90.70;;;;;;5094511;28;20036;-84
2021/01/01 01:10:15;;;;;;;198.50;114.93;;;3.50;90.80;;;;;;5094465;28;20016;-84
2021/01/01 01:12:41;;;;;;;210.90;118.50;;;3.50;90.80;;;;;;5095724;28;20432;-84
2021/01/01 01:15:08;;;;;;;205.53;119.93;;;3.40;90.80;;;;;;5095752;28;20016;-84
2021/01/01 01:17:33;;;;;;;216.47;119.80;;;3.40;90.80;;;;;;5094615;28;20107;-84
2021/01/01 01:19:59;;;;;;;197.97;113.67;;;3.40;90.80;;;;;;5095766;28;20518;-84
2021/01/01 01:22:25;;;;;;;186.90;107.13;;;3.30;90.80;;;;;;5094327;28;20376;-84
2021/01/01 01:24:50;;;;;;;186.07;106.90;;;3.30;90.80;;;;;;5095678;28;20036;-83
2021/01/01 01:27:16;;;;;;;185.70;105.43;;;3.30;90.90;;;;;;5094190;28;20036;-83
2021/01/01 01:29:41;;;;;;;199.53;108.03;;;3.30;90.90;;;;;;5095540;28;20062;-84
2021/01/01 01:32:07;;;;;;;191.50;107.97;;;3.30;90.90;;;;;;5094298;28;20028;-84
2021/01/01 01:34:33;;;;;;;182.63;105.67;;;3.20;90.90;;;;;;5077033;28;20016;-84
2021/01/01 01:36:58;;;;;;;199.90;113.77;;;3.20;90.90;;;;;;5093892;28;20032;-84
2021/01/01 01:39:24;;;;;;;211.97;118.50;;;3.20;91.20;;;;;;5095342;28;20035;-84
2021/01/01 01:41:49;;;;;;;217.63;120.77;;;3.20;91.20;;;;;;5094027;28;20035;-83
2021/01/01 01:44:15;;;;;;;213.97;121.67;;;3.20;91.00;;;;;;5094004;28;20032;-84
2021/01/01 01:46:45;;;;;;;214.83;123.00;;;3.10;90.90;;;;;;5095009;28;20046;-84
2021/01/01 01:49:16;;;;;;;226.70;123.20;;;3.20;91.00;;;;;;5093808;28;20112;-84
2021/01/01 01:51:46;;;;;;;221.97;124.17;;;3.20;91.00;;;;;;5093608;28;20070;-84
2021/01/01 01:54:12;;;;;;;222.67;125.57;;;3.20;91.00;;;;;;5095110;28;20027;-84
2021/01/01 01:56:39;;;;;;;225.33;125.97;;;3.10;90.90;;;;;;5093689;28;20020;-84
2021/01/01 01:59:05;;;;;;;223.17;123.87;;;3.10;90.90;;;;;;5094846;28;20384;-84
2021/01/01 02:01:31;;;;;;;232.53;127.90;;;2.90;90.90;;;;;;5095181;28;20024;-84
2021/01/01 02:03:56;;;;;;;227.53;123.43;;;3.00;91.00;;;;;;5076654;28;20058;-84
2021/01/01 02:06:22;;;;;;;231.83;123.47;;;3.00;91.00;;;;;;5093355;28;20060;-84
2021/01/01 02:08:51;;;;;;;211.47;118.40;;;3.00;91.30;;;;;;5076837;28;20085;-84
2021/01/01 02:11:17;;;;;;;206.00;115.67;;;2.90;91.00;;;;;;5094516;28;20020;-84
2021/01/01 02:13:46;;;;;;;212.77;112.63;;;2.90;90.90;;;;;;5094874;28;20020;-84
2021/01/01 02:16:13;;;;;;;206.73;112.63;;;2.90;90.90;;;;;;5094767;28;20024;-84
2021/01/01 02:18:41;;;;;;;198.40;106.33;;;2.80;90.90;;;;;;5094744;28;20020;-83
2021/01/01 02:21:07;;;;;;;193.13;103.70;;;2.80;91.20;;;;;;5093573;28;20135;-84
2021/01/01 02:23:34;;;;;;;191.30;103.43;;;2.80;91.00;;;;;;5093319;28;20069;-84
2021/01/01 02:26:00;;;;;;;194.03;104.77;;;2.70;91.00;;;;;;5094746;28;20100;-84
2021/01/01 02:28:26;;;;;;;186.77;101.20;;;2.70;91.10;;;;;;5093052;28;20020;-84
2021/01/01 02:30:52;;;;;;;188.10;98.30;;;2.70;91.10;;;;;;5093057;28;20024;-84
2021/01/01 02:33:18;;;;;;;184.63;98.23;;;2.60;91.10;;;;;;5093088;28;20035;-83
2021/01/01 02:35:43;;;;;;;181.33;96.80;;;2.60;91.20;;;;;;5093078;28;20097;-84
2021/01/01 02:38:09;;;;;;;177.70;94.80;;;2.60;91.30;;;;;;5093125;28;20016;-83
2021/01/01 02:40:35;;;;;;;187.43;95.13;;;2.60;91.30;;;;;;5092940;28;20016;-83
2021/01/01 02:43:00;;;;;;;182.27;97.60;;;2.50;91.60;;;;;;5076162;28;20025;-84
2021/01/01 02:45:26;;;;;;;172.93;93.03;;;2.50;91.40;;;;;;5092700;28;20036;-84
2021/01/01 02:47:52;;;;;;;170.30;90.70;;;2.50;91.40;;;;;;5093919;28;20032;-84
2021/01/01 02:50:18;;;;;;;192.07;93.97;;;2.50;91.40;;;;;;5092951;28;20048;-83
2021/01/01 02:52:44;;;;;;;179.93;92.77;;;2.50;91.30;;;;;;5092837;28;20085;-84
2021/01/01 02:55:11;;;;;;;179.10;91.17;;;2.40;91.30;;;;;;5076038;28;20034;-83
2021/01/01 02:57:37;;;;;;;180.77;95.37;;;2.30;91.30;;;;;;5093912;28;20044;-84
2021/01/01 03:00:05;;;;;;;194.73;94.03;;;2.30;91.40;;;;;;5092640;28;20127;-84
2021/01/01 03:02:31;;;;;;;183.73;88.57;;;2.30;91.40;;;;;;5092477;28;20111;-83
2021/01/01 03:04:56;;;;;;;174.07;91.83;;;2.30;91.40;;;;;;5092933;28;20454;-83
2021/01/01 03:07:22;;;;;;;184.33;92.90;;;2.30;91.40;;;;;;5093906;28;20383;-84
2021/01/01 03:09:47;;;;;;;190.10;96.00;;;2.20;91.40;;;;;;5093834;28;20028;-84
2021/01/01 03:12:13;;;;;;;190.50;96.43;;;2.20;91.50;;;;;;5092556;28;20031;-83
2021/01/01 03:14:38;;;;;;;192.60;96.67;;;2.20;91.60;;;;;;5075568;28;20123;-84
2021/01/01 03:17:04;;;;;;;190.77;97.03;;;2.20;91.60;;;;;;5092359;28;20032;-84
2021/01/01 03:19:29;;;;;;;195.10;95.03;;;2.20;91.70;;;;;;5094233;28;20035;-84
2021/01/01 03:21:55;;;;;;;182.63;94.30;;;2.20;91.60;;;;;;5091578;28;20115;-83
2021/01/01 03:24:21;;;;;;;177.67;94.17;;;2.20;91.70;;;;;;5093615;28;20468;-84
2021/01/01 03:26:46;;;;;;;198.13;98.33;;;2.20;91.70;;;;;;5093691;28;20157;-84
2021/01/01 03:29:12;;;;;;;212.17;105.07;;;2.20;91.70;;;;;;5075708;28;20056;-84
2021/01/01 03:31:37;;;;;;;206.80;106.60;;;2.20;91.70;;;;;;5093478;28;20033;-84
2021/01/01 03:34:03;;;;;;;213.43;107.90;;;2.20;91.80;;;;;;5092459;28;20487;-84
2021/01/01 03:36:28;;;;;;;212.77;111.93;;;2.10;91.90;;;;;;5093491;28;20038;-84
2021/01/01 03:38:56;;;;;;;224.33;111.50;;;2.10;92.00;;;;;;5092361;28;20517;-83
2021/01/01 03:41:22;;;;;;;216.33;113.13;;;2.10;92.10;;;;;;5075759;28;20039;-84
2021/01/01 03:43:47;;;;;;;221.57;112.97;;;2.10;92.50;;;;;;5092558;28;20416;-84
2021/01/01 03:46:13;;;;;;;214.70;106.23;;;2.10;92.20;;;;;;5093195;28;20059;-84
2021/01/01 03:48:38;;;;;;;237.87;119.43;;;2.10;92.10;;;;;;5092145;28;20104;-84
2021/01/01 03:51:04;;;;;;;222.67;112.57;;;2.10;92.10;;;;;;5093227;28;20051;-84
2021/01/01 03:53:30;;;;;;;223.60;111.87;;;2.10;92.20;;;;;;5093261;28;20051;-84
2021/01/01 03:55:55;;;;;;;227.23;112.40;;;2.10;92.10;;;;;;5092267;28;20028;-82
2021/01/01 03:58:21;;;;;;;226.40;113.50;;;2.10;92.50;;;;;;5092394;28;20467;-83
2021/01/01 04:00:47;;;;;;;222.37;111.70;;;2.10;92.20;;;;;;5093238;28;20101;-84
2021/01/01 04:03:12;;;;;;;217.87;110.57;;;2.10;92.30;;;;;;5092000;28;20032;-84
2021/01/01 04:05:38;;;;;;;204.63;108.30;;;2.10;92.30;;;;;;5092021;28;20452;-83
2021/01/01 04:08:04;;;;;;;209.37;109.10;;;2.10;92.60;;;;;;5075244;28;20036;-84
2021/01/01 04:10:29;;;;;;;214.37;108.83;;;2.10;92.30;;;;;;5092193;28;20104;-84
2021/01/01 04:12:55;;;;;;;216.10;106.67;;;2.10;92.40;;;;;;5093167;28;20460;-84
2021/01/01 04:15:20;;;;;;;200.20;103.77;;;2.10;92.50;;;;;;5093105;28;20032;-84
2021/01/01 04:17:46;;;;;;;207.87;102.03;;;2.10;92.50;;;;;;5093057;28;20119;-84
2021/01/01 04:20:12;;;;;;;187.77;97.90;;;2.10;92.60;;;;;;5074989;28;20097;-84
2021/01/01 04:22:37;;;;;;;186.97;97.80;;;2.20;92.70;;;;;;5093613;28;20426;-84
2021/01/01 04:25:03;;;;;;;183.87;96.70;;;2.20;92.70;;;;;;5091861;28;20089;-83
2021/01/01 04:27:29;;;;;;;191.97;98.67;;;2.20;92.70;;;;;;5091632;28;20028;-84
2021/01/01 04:29:55;;;;;;;179.63;93.13;;;2.20;92.70;;;;;;5091856;28;20395;-83
2021/01/01 04:32:20;;;;;;;184.13;93.37;;;2.30;92.70;;;;;;5092998;28;20111;-84
2021/01/01 04:34:46;;;;;;;178.03;87.60;;;2.40;92.60;;;;;;5097021;28;20028;-84
2021/01/01 04:37:11;;;;;;;169.80;86.40;;;2.30;92.60;;;;;;5096687;28;20039;-83
2021/01/01 04:39:37;;;;;;;164.27;83.00;;;2.30;92.60;;;;;;5078378;28;20397;-84
2021/01/01 04:42:04;;;;;;;178.47;87.50;;;2.30;92.70;;;;;;5095303;28;20039;-84
2021/01/01 04:44:30;;;;;;;160.13;82.57;;;2.40;92.70;;;;;;5095165;28;20032;-84
2021/01/01 04:46:56;;;;;;;168.07;83.47;;;2.40;92.70;;;;;;5094855;28;20059;-83
2021/01/01 04:49:21;;;;;;;158.27;80.07;;;2.40;92.70;;;;;;5095128;28;20361;-83
2021/01/01 04:51:47;;;;;;;152.03;76.73;;;2.40;92.70;;;;;;5096457;28;20033;-83
2021/01/01 04:54:16;;;;;;;158.30;81.60;;;2.40;92.70;;;;;;5096338;28;20028;-84
2021/01/01 04:56:46;;;;;;;155.20;77.03;;;2.40;92.70;;;;;;5095109;28;20017;-83
2021/01/01 04:59:15;;;;;;;150.63;78.27;;;2.40;92.60;;;;;;5096200;28;20020;-83
2021/01/01 05:01:41;;;;;;;151.67;76.03;;;2.40;92.70;;;;;;5093663;28;20383;-84
2021/01/01 05:04:07;;;;;;;153.03;76.17;;;2.40;92.70;;;;;;5096322;28;20032;-83
2021/01/01 05:06:35;;;;;;;170.57;80.93;;;2.50;92.80;;;;;;5092858;28;20132;-84
2021/01/01 05:09:04;;;;;;;153.77;77.47;;;2.50;92.80;;;;;;5093842;28;20028;-83
2021/01/01 05:11:30;;;;;;;144.13;74.23;;;2.50;92.70;;;;;;5096026;28;20024;-84
2021/01/01 05:14:00;;;;;;;148.23;80.27;;;2.50;92.70;;;;;;5095799;28;20073;-84
2021/01/01 05:16:26;;;;;;;152.10;77.37;;;2.50;92.70;;;;;;5093881;28;20023;-84
2021/01/01 05:18:53;;;;;;;149.83;79.17;;;2.50;92.60;;;;;;5096237;28;20024;-84
2021/01/01 05:21:24;;;;;;;149.83;79.10;;;2.50;92.60;;;;;;5094671;28;20062;-84
2021/01/01 05:23:51;;;;;;;156.30;80.37;;;2.50;92.50;;;;;;5095886;28;20028;-84
2021/01/01 05:26:18;;;;;;;153.93;77.93;;;2.40;92.40;;;;;;5077789;28;20111;-84
2021/01/01 05:28:49;;;;;;;156.23;78.37;;;2.40;92.40;;;;;;5094450;28;20467;-84
2021/01/01 05:31:19;;;;;;;142.30;74.17;;;2.40;92.40;;;;;;5095575;28;20016;-84
2021/01/01 05:34:05;;;;;;;155.33;77.23;;;2.30;92.40;;;;;;5095541;28;20024;-83
2021/01/01 05:36:34;;;;;;;147.17;74.57;;;2.30;92.40;;;;;;5095495;28;20096;-83
2021/01/01 05:39:01;;;;;;;147.17;76.10;;;2.30;92.60;;;;;;5092121;28;20027;-84
2021/01/01 05:41:38;;;;;;;158.23;80.43;;;2.20;92.40;;;;;;5094023;28;20539;-84
2021/01/01 05:44:20;;;;;;;148.90;78.83;;;2.20;92.50;;;;;;5093909;28;20031;-84
2021/01/01 05:47:06;;;;;;;150.43;76.23;;;2.20;92.60;;;;;;5095072;28;20515;-74
2021/01/01 05:49:40;;;;;;;145.20;74.10;;;2.20;92.60;;;;;;5095088;28;20024;-74
2021/01/01 05:52:19;;;;;;;151.13;73.35;;;2.20;92.60;;;;;;5078468;28;20020;-74
2021/01/01 05:54:50;;;;;;;141.87;74.17;;;2.20;92.50;;;;;;5095324;28;20016;-75
2021/01/01 05:57:17;;;;;;;142.20;75.53;;;2.20;92.50;;;;;;5096873;28;20024;-74
2021/01/01 05:59:46;;;;;;;154.63;76.37;;;2.20;92.50;;;;;;5096432;28;20032;-74
2021/01/01 06:02:12;;;;;;;159.60;77.67;;;2.10;92.40;;;;;;5096086;28;20356;-74
2021/01/01 06:04:39;;;;;;;154.57;79.77;;;2.10;92.80;;;;;;5097099;28;20066;-74
2021/01/01 06:07:10;;;;;;;157.63;78.00;;;2.10;92.50;;;;;;5095942;28;20028;-74
2021/01/01 06:09:37;;;;;;;150.63;76.10;;;2.10;92.50;;;;;;5094716;28;20024;-74
2021/01/01 06:12:05;;;;;;;157.57;77.07;;;2.10;92.50;;;;;;5076816;28;20055;-74
2021/01/01 06:14:42;;;;;;;149.93;77.63;;;2.10;92.80;;;;;;5093457;28;20060;-74
2021/01/01 06:17:10;;;;;;;162.07;76.03;;;2.00;92.50;;;;;;5094627;28;20535;-74
2021/01/01 06:19:46;;;;;;;158.77;77.37;;;2.10;92.50;;;;;;5088591;28;20036;-74
2021/01/01 06:22:17;;;;;;;156.17;75.37;;;2.00;92.50;;;;;;5091858;28;20402;-74
2021/01/01 06:25:07;;;;;;;154.67;75.90;;;2.00;92.50;;;;;;5091634;28;20059;-75
2021/01/01 06:27:33;;;;;;;151.70;75.67;;;2.00;92.50;;;;;;5092174;28;20031;-74
2021/01/01 06:30:03;;;;;;;149.13;77.50;;;2.00;92.60;;;;;;5093223;28;20498;-75
2021/01/01 06:32:31;;;;;;;157.13;78.63;;;2.00;92.60;;;;;;5093544;28;20574;-75
2021/01/01 06:35:21;;;;;;;157.37;77.60;;;2.10;92.70;;;;;;5092546;28;20062;-76
2021/01/01 06:37:49;;;;;;;164.67;79.00;;;2.00;92.70;;;;;;5092869;28;20020;-75
2021/01/01 06:40:20;;;;;;;165.33;78.80;;;2.00;92.80;;;;;;5092839;28;20027;-75
2021/01/01 06:42:55;;;;;;;161.73;79.00;;;2.10;92.80;;;;;;5092996;28;20032;-75
2021/01/01 06:45:40;;;;;;;;;;;2.10;92.90;;;;;;5093029;28;20048;-74
2021/01/01 06:48:07;;;;;;;138.87;68.93;;;2.20;92.90;;;;;;5092096;28;20325;-74
2021/01/01 06:50:41;;;;;;;159.23;76.23;;;2.20;92.80;;;;;;5092789;28;20012;-74
2021/01/01 06:53:06;;;;;;;157.95;75.95;;;2.20;92.80;;;;;;5094088;28;20398;-75
2021/01/01 06:55:34;;;;;;;156.20;76.67;;;2.20;92.90;;;;;;5092760;28;20031;-75
2021/01/01 06:58:00;;;;;;;165.93;79.47;;;2.20;92.90;;;;;;5059380;28;20031;-74
2021/01/01 07:00:44;;;;;;;156.03;80.97;;;2.20;92.90;;;;;;5094231;28;20032;-84
2021/01/01 07:03:33;;;;;;;164.20;79.13;;;2.20;92.90;;;;;;5093060;28;20493;-84
2021/01/01 07:06:01;;;;;;;156.07;79.93;;;2.20;93.00;;;;;;5093044;28;20035;-83
2021/01/01 07:08:39;;;;;;;164.97;80.43;;;2.20;93.00;;;;;;5093881;28;20035;-82
2021/01/01 07:11:25;;;;;;;160.60;78.17;;;2.30;93.00;;;;;;5092669;28;20054;-83
2021/01/01 07:13:52;;;;;;;174.90;84.00;;;2.30;93.00;;;;;;5089776;28;20028;-84
2021/01/01 07:16:19;;;;;;;161.53;80.93;;;2.30;93.00;;;;;;5093932;28;20032;-83
2021/01/01 07:18:46;;;;;;;164.73;80.93;;;2.30;93.00;;;;;;5092486;28;20074;-84
2021/01/01 07:21:14;;;;;;;167.47;83.23;;;2.30;93.00;;;;;;5093999;28;20024;-84
2021/01/01 07:23:41;;;;;;;167.23;83.17;;;2.30;93.30;;;;;;5092418;28;20102;-84
2021/01/01 07:26:07;;;;;;;169.07;85.43;;;2.40;93.10;;;;;;5092502;28;20471;-84
2021/01/01 07:28:33;;;;;;;174.40;87.17;;;2.40;93.10;;;;;;5075631;28;20043;-84
2021/01/01 07:30:59;;;;;;;171.23;88.73;;;2.50;93.20;;;;;;5092909;28;20036;-84
2021/01/01 07:33:31;;;;;;;179.93;90.87;;;2.50;93.20;;;;;;5092336;28;20056;-84
2021/01/01 07:36:02;;;;;;;174.73;88.93;;;2.50;93.10;;;;;;5093411;28;20020;-84
2021/01/01 07:38:30;;;;;;;163.83;84.63;;;2.50;93.10;;;;;;5093855;28;20063;-84
2021/01/01 07:40:56;;;;;;;172.70;87.33;;;2.50;93.10;;;;;;5092294;28;20119;-83
2021/01/01 07:43:21;;;;;;;183.37;87.70;;;2.50;93.10;;;;;;5093685;28;20067;-83
2021/01/01 07:45:48;;;;;;;171.80;88.73;;;2.50;93.10;;;;;;5092356;28;20499;-83
2021/01/01 07:48:14;;;;;;;170.93;90.83;;;2.50;93.10;;;;;;5092287;28;20036;-84
2021/01/01 07:50:40;;;;;;;171.40;84.40;;;2.50;93.40;;;;;;5093573;28;20032;-84
2021/01/01 07:53:10;;;;;;;173.63;87.33;;;2.50;93.10;;;;;;5092255;28;20065;-84
2021/01/01 07:55:38;;;;;;;168.53;85.67;;;2.50;93.20;;;;;;5092162;28;20372;-84
2021/01/01 07:58:11;;;;;;;162.57;85.37;;;2.50;93.20;;;;;;5092432;28;20036;-83
2021/01/01 08:00:39;;;;;;;175.55;87.90;;;2.50;93.20;;;;;;5092234;28;20028;-83
2021/01/01 08:03:06;;;;;;;167.90;81.17;;;2.50;93.20;;;;;;5093813;28;20417;-84
2021/01/01 08:05:32;;;;;;;161.90;81.10;;;2.60;93.30;;;;;;5091989;28;20023;-83
2021/01/01 08:08:10;;;;;;;158.07;79.53;;;2.60;93.30;;;;;;5094501;28;20031;-84
2021/01/01 08:10:36;;;;;;;151.93;78.10;;;2.60;93.30;;;;;;5095848;28;20027;-83
2021/01/01 08:13:01;;;;;;;157.23;79.63;;;2.60;93.30;;;;;;5078974;28;20146;-84
2021/01/01 08:15:31;;;;;;;151.03;80.07;;;2.60;93.30;;;;;;5097045;28;20483;-84
2021/01/01 08:18:07;;;;;;;164.37;79.37;;;2.70;93.40;;;;;;5097029;28;20039;-84
2021/01/01 08:20:33;;;;;;;141.90;75.57;;;2.70;93.40;;;;;;5096034;28;20020;-84
2021/01/01 08:23:02;;;;;;;135.27;71.00;;;2.70;93.40;;;;;;5096777;28;20058;-74
2021/01/01 08:25:29;;;;;;;141.77;76.20;;;2.70;93.40;;;;;;5095401;28;20073;-74
2021/01/01 08:27:55;;;;;;;139.53;70.93;;;2.70;93.40;;;;;;5096568;28;20115;-74
2021/01/01 08:30:21;;;;;;;129.87;69.97;;;2.70;93.70;;;;;;5095495;28;20460;-74
2021/01/01 08:32:48;;;;;;;134.47;68.40;;;2.80;93.50;;;;;;5078840;28;20101;-74
2021/01/01 08:35:14;;;;;;;133.70;68.77;;;2.80;93.50;;;;;;5095279;28;20128;-75
2021/01/01 08:37:40;;;;;;;124.07;65.50;;;2.80;93.60;;;;;;5095458;28;20375;-75
2021/01/01 08:40:10;;;;;;;114.37;59.47;;;2.90;93.90;;;;;;5095149;28;20028;-74
2021/01/01 08:42:38;;;;;;;105.37;54.37;;;2.90;93.50;;;;;;5094980;28;20032;-74
2021/01/01 08:45:11;;;;;;;104.90;53.70;;;3.00;93.60;;;;;;5094868;28;20078;-74
2021/01/01 08:47:41;;;;;;;101.63;51.03;;;3.00;93.60;;;;;;5094897;28;20024;-74
2021/01/01 08:50:28;;;;;;;90.53;48.97;;;2.90;93.60;;;;;;5094981;28;20459;-74
2021/01/01 08:52:58;;;;;;;87.80;45.47;;;3.00;93.90;;;;;;5096169;28;20070;-74
2021/01/01 08:55:25;;;;;;;82.73;43.90;;;3.10;93.70;;;;;;5094743;28;20123;-74
2021/01/01 08:58:04;;;;;;;83.33;46.17;;;3.10;93.60;;;;;;5094766;28;20024;-75
2021/01/01 09:00:29;;;;;;;88.83;46.73;;;3.20;93.60;;;;;;5080028;28;20028;-74
2021/01/01 09:02:56;;;;;;;78.97;41.60;;;3.20;93.50;;;;;;5077907;28;20182;-74
2021/01/01 09:05:26;;;;;;;79.97;41.47;;;3.20;93.60;;;;;;5094701;28;20032;-74
2021/01/01 09:08:07;;;;;;;82.37;41.87;;;3.30;93.60;;;;;;5095907;28;20031;-74
2021/01/01 09:10:33;;;;;;;76.57;40.30;;;3.30;93.50;;;;;;5094811;28;20032;-75
2021/01/01 09:12:59;;;;;;;74.43;38.53;;;3.40;93.60;;;;;;5077839;28;20532;-74
2021/01/01 09:15:30;;;;;;;70.00;38.00;;;3.40;93.50;;;;;;5077628;28;20452;-74
2021/01/01 09:18:06;;;;;;;72.63;36.60;;;3.50;93.60;;;;;;5077708;28;20105;-74
2021/01/01 09:20:33;;;;;;;70.60;37.17;;;3.60;93.60;;;;;;5093316;28;20387;-75
2021/01/01 09:23:01;;;;;;;66.07;36.43;;;3.60;93.70;;;;;;5094453;28;20028;-74
2021/01/01 09:25:27;;;;;;;61.97;34.93;;;3.70;93.70;;;;;;5094272;28;20387;-75
2021/01/01 09:27:53;;;;;;;67.43;33.33;;;3.80;93.80;;;;;;5094210;28;20541;-74
2021/01/01 09:30:30;;;;;;;60.90;33.37;;;3.80;93.80;;;;;;5095498;28;20024;-75
2021/01/01 09:33:00;;;;;;;55.50;32.30;;;3.90;93.80;;;;;;5094083;28;20027;-75
2021/01/01 09:35:28;;;;;;;58.27;32.37;;;4.10;93.90;;;;;;5094144;28;20024;-75
2021/01/01 09:37:54;;;;;;;53.87;31.13;;;4.10;93.90;;;;;;5095246;28;20486;-75
2021/01/01 09:40:23;;;;;;;56.10;29.60;;;4.20;93.90;;;;;;5094061;28;20497;-75
2021/01/01 09:42:48;;;;;;;54.70;29.87;;;4.40;94.00;;;;;;5095225;28;20079;-75
2021/01/01 09:45:15;;;;;;;48.67;27.93;;;4.50;93.90;;;;;;5076860;28;20487;-75
2021/01/01 09:47:41;;;;;;;48.70;27.30;;;4.60;93.80;;;;;;5095032;28;20032;-75
2021/01/01 09:50:08;;;;;;;45.03;26.07;;;4.70;93.80;;;;;;5095239;28;20052;-75
2021/01/01 09:52:35;;;;;;;45.43;25.13;;;4.80;93.70;;;;;;5095257;28;20032;-74
2021/01/01 09:55:00;;;;;;;42.13;24.20;;;4.90;93.60;;;;;;5095112;28;20024;-74
2021/01/01 09:57:26;;;;;;;42.57;23.33;;;4.90;93.50;;;;;;5094056;28;20093;-74
2021/01/01 09:59:52;;;;;;;39.13;25.00;;;5.00;93.40;;;;;;5094838;28;20028;-74
2021/01/01 10:02:18;;;;;;;41.27;23.73;;;5.00;93.00;;;;;;5076685;28;20028;-74
2021/01/01 10:04:43;;;;;;;36.43;22.33;;;5.10;93.30;;;;;;5093649;28;20395;-74
2021/01/01 10:07:09;;;;;;;40.00;22.40;;;5.10;93.20;;;;;;5076667;28;20032;-74
2021/01/01 10:09:34;;;;;;;36.63;20.83;;;5.20;93.00;;;;;;5076730;28;20035;-74
2021/01/01 10:12:07;;;;;;;34.37;20.47;;;5.30;93.00;;;;;;5060120;28;20024;-73
2021/01/01 10:14:33;;;;;;;38.13;22.10;;;5.30;92.90;;;;;;5076872;28;20024;-74
2021/01/01 10:16:59;;;;;;;33.93;20.00;;;5.40;92.80;;;;;;5093460;28;20533;-73
2021/01/01 10:19:24;;;;;;;37.80;20.27;;;5.40;92.60;;;;;;5093279;28;20024;-74
2021/01/01 10:21:51;;;;;;;35.37;20.23;;;5.40;92.40;;;;;;5093230;28;20377;-74
2021/01/01 10:24:16;;;;;;;35.80;20.43;;;5.50;92.40;;;;;;5094337;28;20055;-73
2021/01/01 10:26:55;;;;;;;35.27;19.40;;;5.50;92.30;;;;;;5059387;28;20476;-73
2021/01/01 10:29:21;;;;;;;32.20;19.30;;;5.70;92.60;;;;;;5092962;28;20028;-73
2021/01/01 10:31:48;;;;;;;28.67;17.70;;;5.90;92.80;;;;;;5092829;28;20024;-73
2021/01/01 10:34:14;;;;;;;29.43;17.17;;;6.00;92.70;;;;;;5093065;28;20032;-73
2021/01/01 10:36:40;;;;;;;33.23;17.80;;;6.20;92.60;;;;;;5092883;28;20115;-74
2021/01/01 10:39:07;;;;;;;26.77;17.10;;;6.30;92.60;;;;;;5092956;28;20036;-73
2021/01/01 10:41:32;;;;;;;30.37;17.40;;;6.30;92.30;;;;;;5093016;28;20032;-74
2021/01/01 10:43:58;;;;;;;29.30;17.43;;;6.30;92.20;;;;;;5093015;28;20115;-73
2021/01/01 10:46:24;;;;;;;30.43;17.80;;;6.30;91.70;;;;;;5092575;28;20056;-73
2021/01/01 10:48:49;;;;;;;29.17;16.87;;;6.30;91.40;;;;;;5092618;28;20479;-73
2021/01/01 10:51:25;;;;;;;37.80;16.30;;;6.20;91.40;;;;;;5093037;28;20038;-83
2021/01/01 10:53:51;;;;;;;30.73;16.27;;;6.20;91.50;;;;;;5092715;28;20057;-83
2021/01/01 10:56:27;;;;;;;26.13;14.77;;;6.30;91.50;;;;;;5092764;28;20434;-84
2021/01/01 10:58:53;;;;;;;23.83;14.87;;;6.60;92.20;;;;;;5094004;28;20027;-84
2021/01/01 11:01:23;;;;;;;26.53;14.17;;;7.10;93.00;;;;;;5092970;28;20476;-84
2021/01/01 11:03:49;;;;;;;22.63;14.23;;;7.70;92.90;;;;;;5075768;28;20024;-85
2021/01/01 11:06:16;;;;;;;25.63;14.43;;;8.00;92.40;;;;;;5092658;28;20070;-84
2021/01/01 11:08:46;;;;;;;20.60;12.30;;;8.20;91.60;;;;;;5093842;28;20028;-84
2021/01/01 11:11:13;;;;;;;21.67;13.80;;;8.50;91.30;;;;;;5093665;28;20413;-83
2021/01/01 11:13:46;;;;;;;19.93;13.60;;;8.80;91.20;;;;;;5093636;28;20047;-84
2021/01/01 12:23:02;;;;;;;15.57;8.60;;;7.40;84.70;;;;;;5081203;28;20032;-85
2021/01/01 12:25:28;;;;;;;14.70;7.77;;;7.50;84.70;;;;;;5079087;28;20029;-86
2021/01/01 12:27:59;;;;;;;17.77;9.03;;;7.50;84.20;;;;;;5077245;28;20036;-84
2021/01/01 12:30:26;;;;;;;17.07;9.23;;;7.50;83.90;;;;;;5109531;28;20031;-85
2021/01/01 12:32:53;;;;;;;14.17;8.47;;;7.40;84.10;;;;;;5099958;28;20026;-84
2021/01/01 12:35:19;;;;;;;14.77;8.37;;;7.40;84.00;;;;;;5098734;28;20015;-83
2021/01/01 12:37:46;;;;;;;14.23;8.07;;;7.40;84.20;;;;;;5098837;28;20027;-84
2021/01/01 12:40:12;;;;;;;16.63;8.60;;;7.40;84.70;;;;;;5117009;28;20024;-82
2021/01/01 12:42:38;;;;;;;15.50;8.60;;;7.40;84.60;;;;;;5116722;28;20028;-83
2021/01/01 12:45:05;;;;;;;14.33;8.60;;;7.40;84.60;;;;;;5115793;28;20528;-84
2021/01/01 12:47:32;;;;;;;16.33;8.53;;;7.40;84.70;;;;;;5115216;28;20075;-84
2021/01/01 12:49:58;;;;;;;13.33;7.40;;;7.30;85.00;;;;;;5115296;28;20023;-84
2021/01/01 12:52:24;;;;;;;16.43;8.50;;;7.30;85.20;;;;;;5116554;28;20030;-82
2021/01/01 12:54:49;;;;;;;13.53;8.10;;;7.40;85.40;;;;;;5115365;28;20024;-85
2021/01/01 12:57:15;;;;;;;18.07;8.70;;;7.30;85.40;;;;;;5116500;28;20542;-84
2021/01/01 12:59:40;;;;;;;15.90;8.97;;;7.40;86.10;;;;;;5115811;28;20031;-84
2021/01/01 13:02:06;;;;;;;14.03;7.73;;;7.40;85.60;;;;;;5098376;28;20116;-85
2021/01/01 13:04:32;;;;;;;17.30;8.23;;;7.50;85.80;;;;;;5116530;28;20035;-84
2021/01/01 13:06:57;;;;;;;13.63;7.93;;;7.50;85.90;;;;;;5116489;28;20390;-84
2021/01/01 13:09:23;;;;;;;13.73;7.70;;;7.50;85.50;;;;;;5097954;28;20024;-84
2021/01/01 13:11:49;;;;;;;15.77;8.23;;;7.50;86.20;;;;;;5081354;28;20024;-84
2021/01/01 13:14:14;;;;;;;16.93;10.63;;;7.50;85.80;;;;;;5114856;28;20030;-85
2021/01/01 13:16:45;;;;;;;16.10;8.93;;;7.60;86.40;;;;;;5114971;28;20085;-84
2021/01/01 13:19:11;;;;;;;17.50;9.00;;;7.90;87.80;;;;;;5116202;27;20055;-83
2021/01/01 13:21:39;;;;;;;17.53;10.63;;;8.20;88.00;;;;;;5114663;28;20437;-83
2021/01/01 13:24:06;;;;;;;12.03;7.27;;;8.50;86.90;;;;;;5115997;28;20447;-83
2021/01/01 13:26:32;;;;;;;17.50;9.23;;;8.50;85.90;;;;;;5114424;28;20467;-83
2021/01/01 13:28:59;;;;;;;12.37;7.17;;;8.40;85.00;;;;;;5114735;28;20059;-83
2021/01/01 13:31:38;;;;;;;12.53;7.23;;;8.60;84.80;;;;;;5114472;28;20081;-83
2021/01/01 13:34:05;;;;;;;13.27;7.10;;;8.60;84.40;;;;;;5114337;28;20028;-83
2021/01/01 13:36:31;;;;;;;14.83;6.23;;;8.60;84.10;;;;;;5097524;28;20023;-82
2021/01/01 13:38:57;;;;;;;12.17;6.37;;;8.70;84.40;;;;;;5114556;28;20387;-83